Time;durP1;ratioP1;P1;durP2;ratioP2;P2;SDS_P1;SDS_P2;PMS_P1;PMS_P2;Temp;Humidity;BMP_temperature;BMP_pressure;BME280_temperature;BME280_humidity;BME280_pressure;Samples;Min_cycle;Max_cycle;Signal;HPM_P1;HPM_P2
2022/02/25 00:01:20;;;;;;;18.02;6.38;;;;;;;;;;5960627;29;20047;-75
2022/02/25 00:04:25;;;;;;;16.80;6.93;;;;;;;;;;5958474;29;20438;-76
2022/02/25 00:07:29;;;;;;;16.27;6.90;;;;;;;;;;5959282;29;20055;-74
2022/02/25 00:10:32;;;;;;;20.45;6.88;;;;;;;;;;5959380;29;20051;-74
2022/02/25 00:13:37;;;;;;;13.00;6.55;;;;;;;;;;5959218;29;20051;-74
2022/02/25 00:16:42;;;;;;;17.85;6.93;;;;;;;;;;5960208;29;20051;-75
2022/02/25 00:19:45;;;;;;;17.15;7.43;;;;;;;;;;5960858;29;20402;-75
2022/02/25 00:22:49;;;;;;;16.58;6.75;;;;;;;;;;5959486;29;20050;-75
2022/02/25 00:25:54;;;;;;;12.88;6.53;;;;;;;;;;5959948;29;20418;-75
2022/02/25 00:28:59;;;;;;;21.08;10.02;;;;;;;;;;5959463;29;20119;-73
2022/02/25 00:32:05;;;;;;;16.95;6.90;;;;;;;;;;5960578;29;20074;-74
2022/02/25 00:35:08;;;;;;;14.95;6.72;;;;;;;;;;5958813;29;20046;-74
2022/02/25 00:38:12;;;;;;;18.45;6.63;;;;;;;;;;5958606;29;20078;-74
2022/02/25 00:41:15;;;;;;;13.13;7.43;;;;;;;;;;5959475;29;20076;-76
2022/02/25 00:44:20;;;;;;;13.77;6.60;;;;;;;;;;5960225;29;20050;-75
2022/02/25 00:47:25;;;;;;;13.13;6.18;;;;;;;;;;5958387;29;20055;-76
2022/02/25 00:50:32;;;;;;;14.20;6.05;;;;;;;;;;5959277;29;20047;-75
2022/02/25 00:53:35;;;;;;;17.52;6.63;;;;;;;;;;5958845;29;20172;-76
2022/02/25 00:56:41;;;;;;;13.60;6.32;;;;;;;;;;5958597;29;20115;-76
2022/02/25 00:59:45;;;;;;;13.75;6.28;;;;;;;;;;5958439;29;20204;-76
2022/02/25 01:02:49;;;;;;;;;;;;;;;;;;5965073;29;20104;-74
2022/02/25 01:05:53;;;;;;;15.13;6.03;;;;;;;;;;5962466;29;20021;-76
2022/02/25 01:08:57;;;;;;;15.75;6.22;;;;;;;;;;5963561;29;20055;-75
2022/02/25 01:12:00;;;;;;;15.88;7.32;;;;;;;;;;5964611;29;20084;-76
2022/02/25 01:15:07;;;;;;;15.60;6.68;;;;;;;;;;5962809;29;20062;-75
2022/02/25 01:18:10;;;;;;;12.55;5.95;;;;;;;;;;5962221;29;20047;-74
2022/02/25 01:21:13;;;;;;;15.20;6.45;;;;;;;;;;5961697;29;20387;-74
2022/02/25 01:24:16;;;;;;;13.13;6.57;;;;;;;;;;5964808;29;20111;-75
2022/02/25 01:27:20;;;;;;;13.18;6.35;;;;;;;;;;5963706;29;20478;-74
2022/02/25 01:30:24;;;;;;;14.80;6.13;;;;;;;;;;5961984;29;20498;-74
2022/02/25 01:33:28;;;;;;;18.05;7.13;;;;;;;;;;5962972;29;20468;-75
2022/02/25 01:36:33;;;;;;;13.80;6.53;;;;;;;;;;5960833;29;20075;-75
2022/02/25 01:39:39;;;;;;;14.75;5.80;;;;;;;;;;5960333;29;20059;-75
2022/02/25 01:42:45;;;;;;;16.52;7.60;;;;;;;;;;5959964;29;20051;-75
2022/02/25 01:45:50;;;;;;;17.00;6.68;;;;;;;;;;5959650;29;20050;-76
2022/02/25 01:48:54;;;;;;;14.35;6.72;;;;;;;;;;5944983;29;20042;-75
2022/02/25 01:52:02;;;;;;;12.68;5.68;;;;;;;;;;5960409;29;20054;-75
2022/02/25 01:55:06;;;;;;;18.13;6.43;;;;;;;;;;5963937;29;20499;-75
2022/02/25 01:58:09;;;;;;;17.83;6.63;;;;;;;;;;5946963;29;20403;-75
2022/02/25 02:01:14;;;;;;;22.00;8.10;;;;;;;;;;5961281;29;20054;-75
2022/02/25 02:04:17;;;;;;;16.75;7.10;;;;;;;;;;5963384;29;20513;-75
2022/02/25 02:07:20;;;;;;;13.85;7.43;;;;;;;;;;5961783;29;20070;-75
2022/02/25 02:10:26;;;;;;;;;;;;;;;;;;5963256;29;20452;-76
2022/02/25 02:13:30;;;;;;;13.23;7.20;;;;;;;;;;5960524;29;20069;-75
2022/02/25 02:16:35;;;;;;;13.27;6.60;;;;;;;;;;5961877;29;20054;-75
2022/02/25 02:19:41;;;;;;;17.10;6.35;;;;;;;;;;5962575;29;20051;-75
2022/02/25 02:22:46;;;;;;;16.15;6.18;;;;;;;;;;5962153;29;20055;-75
2022/02/25 02:25:52;;;;;;;16.50;6.63;;;;;;;;;;5961609;29;20050;-75
2022/02/25 02:28:55;;;;;;;12.52;6.15;;;;;;;;;;5961505;29;20047;-75
2022/02/25 02:32:01;;;;;;;12.88;6.55;;;;;;;;;;5961445;29;20051;-75
2022/02/25 02:35:05;;;;;;;14.45;6.68;;;;;;;;;;5962256;29;20062;-75
2022/02/25 02:38:10;;;;;;;14.82;5.60;;;;;;;;;;5962762;29;20183;-74
2022/02/25 02:41:13;;;;;;;16.15;6.65;;;;;;;;;;5960770;29;20517;-75
2022/02/25 02:44:16;;;;;;;14.70;6.80;;;;;;;;;;5961607;29;20086;-75
2022/02/25 02:47:20;;;;;;;14.48;6.18;;;;;;;;;;5961382;29;20506;-75
2022/02/25 02:50:23;;;;;;;17.45;6.03;;;;;;;;;;5962245;29;20055;-75
2022/02/25 02:53:30;;;;;;;17.15;6.25;;;;;;;;;;5960538;29;20058;-75
2022/02/25 02:56:34;;;;;;;15.60;6.10;;;;;;;;;;5961591;29;20126;-75
2022/02/25 02:59:38;;;;;;;17.38;6.47;;;;;;;;;;5960592;29;20062;-75
2022/02/25 03:02:42;;;;;;;15.02;6.60;;;;;;;;;;5960422;29;20069;-75
2022/02/25 03:05:48;;;;;;;12.95;6.15;;;;;;;;;;5959997;29;20525;-75
2022/02/25 03:08:53;;;;;;;15.98;6.30;;;;;;;;;;5961128;29;20042;-75
2022/02/25 03:11:58;;;;;;;12.82;5.43;;;;;;;;;;5960353;29;20212;-74
2022/02/25 03:15:02;;;;;;;13.70;6.30;;;;;;;;;;5959966;29;20143;-75
2022/02/25 03:18:06;;;;;;;12.25;5.80;;;;;;;;;;5961813;29;20517;-75
2022/02/25 03:21:10;;;;;;;11.50;5.63;;;;;;;;;;5961888;29;20201;-74
2022/02/25 03:24:17;;;;;;;10.13;5.53;;;;;;;;;;5959963;29;20055;-74
2022/02/25 03:27:20;;;;;;;16.17;7.65;;;;;;;;;;5961066;29;20051;-76
2022/02/25 03:30:23;;;;;;;11.27;6.00;;;;;;;;;;5960702;29;20518;-74
2022/02/25 03:33:26;;;;;;;13.93;6.70;;;;;;;;;;5959804;29;20047;-74
2022/02/25 03:36:31;;;;;;;13.32;5.90;;;;;;;;;;5959649;29;20054;-74
2022/02/25 03:39:38;;;;;;;12.80;5.97;;;;;;;;;;5960020;29;20053;-74
2022/02/25 03:42:41;;;;;;;14.82;6.07;;;;;;;;;;5959901;29;20494;-74
2022/02/25 03:45:45;;;;;;;11.50;6.47;;;;;;;;;;5959566;29;20057;-74
2022/02/25 03:48:50;;;;;;;12.63;6.22;;;;;;;;;;5960722;29;20051;-73
2022/02/25 03:51:56;;;;;;;13.30;6.28;;;;;;;;;;5959934;29;20059;-74
2022/02/25 03:55:01;;;;;;;;;;;;;;;;;;5960049;29;20058;-75
2022/02/25 03:58:06;;;;;;;16.77;6.53;;;;;;;;;;5959014;29;20337;-74
2022/02/25 04:01:09;;;;;;;11.40;5.22;;;;;;;;;;5960945;29;20050;-74
2022/02/25 04:04:15;;;;;;;10.95;5.82;;;;;;;;;;5959422;29;20076;-75
2022/02/25 04:07:18;;;;;;;15.10;6.57;;;;;;;;;;5960263;29;20067;-74
2022/02/25 04:10:21;;;;;;;16.48;6.90;;;;;;;;;;5959204;29;20295;-74
2022/02/25 04:13:26;;;;;;;14.38;7.03;;;;;;;;;;5959450;29;20054;-74
2022/02/25 04:16:31;;;;;;;19.55;6.78;;;;;;;;;;5960530;29;20075;-74
2022/02/25 04:19:35;;;;;;;19.38;8.88;;;;;;;;;;5959958;29;20047;-74
2022/02/25 04:22:40;;;;;;;18.05;9.80;;;;;;;;;;5961224;29;20114;-74
2022/02/25 04:25:46;;;;;;;19.92;10.18;;;;;;;;;;5959137;29;20571;-75
2022/02/25 04:28:51;;;;;;;22.40;8.73;;;;;;;;;;5958931;29;20095;-75
2022/02/25 04:31:57;;;;;;;18.50;7.55;;;;;;;;;;5958968;29;20057;-75
2022/02/25 04:35:00;;;;;;;15.05;6.80;;;;;;;;;;5960721;29;20107;-75
2022/02/25 04:38:04;;;;;;;15.80;6.90;;;;;;;;;;5963466;29;20054;-75
2022/02/25 04:41:10;;;;;;;14.70;6.20;;;;;;;;;;5963381;29;20129;-74
2022/02/25 04:44:15;;;;;;;16.10;6.22;;;;;;;;;;5963979;29;20054;-75
2022/02/25 04:47:18;;;;;;;21.50;6.40;;;;;;;;;;5965114;29;20129;-75
2022/02/25 04:50:22;;;;;;;12.65;5.80;;;;;;;;;;5962982;29;20050;-75
2022/02/25 04:53:25;;;;;;;19.10;7.68;;;;;;;;;;5963275;29;20130;-75
2022/02/25 04:56:28;;;;;;;15.50;6.18;;;;;;;;;;5964822;29;20050;-75
2022/02/25 04:59:33;;;;;;;14.50;6.30;;;;;;;;;;5964257;29;20050;-74
2022/02/25 05:02:36;;;;;;;11.85;5.88;;;;;;;;;;5962688;29;20059;-74
2022/02/25 05:05:40;;;;;;;14.88;6.70;;;;;;;;;;5964665;29;20054;-74
2022/02/25 05:08:45;;;;;;;20.95;6.57;;;;;;;;;;5963980;29;20062;-74
2022/02/25 05:11:48;;;;;;;11.82;6.05;;;;;;;;;;5963740;29;20047;-75
2022/02/25 05:22:00;;;;;;;14.77;6.45;;;;;;;;;;5931780;29;20071;-74
2022/02/25 05:25:03;;;;;;;13.68;6.32;;;;;;;;;;5963477;29;20051;-73
2022/02/25 05:28:07;;;;;;;20.52;6.68;;;;;;;;;;5963748;29;20051;-73
2022/02/25 05:31:11;;;;;;;15.93;6.60;;;;;;;;;;5962570;29;20051;-74
2022/02/25 05:34:18;;;;;;;16.15;6.53;;;;;;;;;;5962024;29;20058;-72
2022/02/25 05:37:26;;;;;;;19.33;6.15;;;;;;;;;;5947176;29;20225;-75
2022/02/25 05:40:30;;;;;;;14.55;6.18;;;;;;;;;;5962639;29;20047;-75
2022/02/25 05:43:34;;;;;;;15.85;6.35;;;;;;;;;;5962162;29;20116;-74
2022/02/25 05:46:39;;;;;;;17.38;7.28;;;;;;;;;;5962177;29;20046;-75
2022/02/25 05:49:51;;;;;;;15.75;7.00;;;;;;;;;;5963425;29;20587;-75
2022/02/25 05:52:56;;;;;;;18.67;6.43;;;;;;;;;;5962504;29;20074;-75
2022/02/25 05:55:59;;;;;;;20.90;6.22;;;;;;;;;;5963254;29;20106;-75
2022/02/25 05:59:02;;;;;;;16.90;7.13;;;;;;;;;;5961836;29;20055;-75
2022/02/25 06:02:06;;;;;;;15.75;6.65;;;;;;;;;;5962202;29;20168;-75
2022/02/25 06:05:11;;;;;;;13.47;6.77;;;;;;;;;;5961441;29;20055;-75
2022/02/25 06:08:14;;;;;;;15.02;6.72;;;;;;;;;;5961565;29;20391;-75
2022/02/25 06:11:20;;;;;;;13.80;6.72;;;;;;;;;;5963301;29;20059;-75
2022/02/25 06:14:23;;;;;;;13.98;6.53;;;;;;;;;;5961798;29;20051;-75
2022/02/25 06:17:31;;;;;;;17.38;6.32;;;;;;;;;;5961254;29;20454;-75
2022/02/25 06:20:35;;;;;;;16.33;6.72;;;;;;;;;;5961216;29;20058;-75
2022/02/25 06:23:38;;;;;;;12.80;7.15;;;;;;;;;;5961751;29;20043;-75
2022/02/25 06:26:42;;;;;;;16.60;7.10;;;;;;;;;;5962350;29;20062;-74
2022/02/25 06:29:46;;;;;;;16.10;6.50;;;;;;;;;;5962821;29;20054;-76
2022/02/25 06:32:52;;;;;;;18.55;7.65;;;;;;;;;;5961169;29;20458;-75
2022/02/25 06:35:55;;;;;;;14.63;6.50;;;;;;;;;;5961091;29;20058;-75
2022/02/25 06:38:58;;;;;;;20.40;8.30;;;;;;;;;;5960575;29;20483;-74
2022/02/25 06:42:02;;;;;;;17.10;7.28;;;;;;;;;;5961585;29;20062;-74
2022/02/25 06:45:07;;;;;;;18.15;7.15;;;;;;;;;;5962341;29;20139;-75
2022/02/25 06:48:12;;;;;;;13.38;6.28;;;;;;;;;;5960984;29;20046;-75
2022/02/25 06:51:15;;;;;;;17.05;6.97;;;;;;;;;;5961659;29;20547;-74
2022/02/25 06:54:19;;;;;;;18.33;7.30;;;;;;;;;;5961127;29;20042;-72
2022/02/25 06:57:26;;;;;;;17.35;7.40;;;;;;;;;;5961986;29;20047;-74
2022/02/25 07:00:33;;;;;;;13.88;7.25;;;;;;;;;;5960107;29;20058;-75
2022/02/25 07:03:38;;;;;;;18.25;7.47;;;;;;;;;;5960214;29;20703;-75
2022/02/25 07:06:43;;;;;;;17.23;7.38;;;;;;;;;;5960714;29;20062;-74
2022/02/25 07:09:45;;;;;;;21.15;7.68;;;;;;;;;;5961345;29;20062;-75
2022/02/25 07:12:50;;;;;;;19.27;8.77;;;;;;;;;;5960899;29;20070;-74
2022/02/25 07:15:53;;;;;;;18.40;8.60;;;;;;;;;;5961624;29;20489;-74
2022/02/25 07:19:00;;;;;;;18.60;8.30;;;;;;;;;;5959947;29;20059;-74
2022/02/25 07:22:03;;;;;;;18.02;8.82;;;;;;;;;;5960903;29;20175;-73
2022/02/25 07:25:07;;;;;;;21.48;8.30;;;;;;;;;;5959822;29;20058;-73
2022/02/25 07:28:10;;;;;;;18.08;8.10;;;;;;;;;;5960163;29;20422;-73
2022/02/25 07:31:14;;;;;;;15.63;8.13;;;;;;;;;;5961086;29;20051;-73
2022/02/25 07:34:18;;;;;;;20.42;8.68;;;;;;;;;;5960876;29;20050;-74
2022/02/25 07:37:23;;;;;;;16.80;8.85;;;;;;;;;;5961247;29;20054;-72
2022/02/25 07:40:29;;;;;;;20.67;8.13;;;;;;;;;;5960918;29;20051;-75
2022/02/25 07:43:36;;;;;;;16.23;7.60;;;;;;;;;;5944932;29;20078;-74
2022/02/25 07:46:42;;;;;;;16.88;7.53;;;;;;;;;;5959363;29;20061;-75
2022/02/25 07:50:01;;;;;;;21.88;8.27;;;;;;;;;;5959736;29;20550;-75
2022/02/25 07:53:05;;;;;;;20.52;8.80;;;;;;;;;;5959060;29;20086;-75
2022/02/25 07:56:08;;;;;;;14.48;7.35;;;;;;;;;;5959045;29;20055;-74
2022/02/25 07:59:14;;;;;;;17.17;7.70;;;;;;;;;;5959691;29;20055;-74
2022/02/25 08:02:24;;;;;;;40.55;19.98;;;;;;;;;;5960493;29;20061;-75
2022/02/25 08:05:29;;;;;;;16.38;8.13;;;;;;;;;;5959915;29;20070;-76
2022/02/25 08:08:32;;;;;;;15.07;7.95;;;;;;;;;;5959138;29;20067;-75
2022/02/25 08:11:35;;;;;;;17.33;7.47;;;;;;;;;;5958860;29;20057;-76
2022/02/25 08:14:40;;;;;;;13.55;8.07;;;;;;;;;;5959087;29;20495;-74
2022/02/25 08:17:43;;;;;;;19.52;7.63;;;;;;;;;;5958640;29;20043;-74
2022/02/25 08:20:48;;;;;;;14.40;7.28;;;;;;;;;;5959420;29;20054;-74
2022/02/25 08:23:52;;;;;;;16.23;6.60;;;;;;;;;;5960179;29;20050;-75
2022/02/25 08:26:55;;;;;;;15.23;6.97;;;;;;;;;;5958635;29;20050;-74
2022/02/25 08:29:58;;;;;;;17.88;7.70;;;;;;;;;;5959697;29;20054;-75
2022/02/25 08:33:02;;;;;;;15.20;6.90;;;;;;;;;;5958886;29;20121;-74
2022/02/25 08:36:09;;;;;;;17.80;6.60;;;;;;;;;;5958344;29;20509;-74
2022/02/25 08:39:12;;;;;;;15.63;6.53;;;;;;;;;;5957726;29;20422;-74
2022/02/25 08:42:18;;;;;;;14.68;6.78;;;;;;;;;;5958875;29;20054;-74
2022/02/25 08:45:26;;;;;;;14.73;5.88;;;;;;;;;;5958843;29;20153;-75
2022/02/25 08:48:29;;;;;;;14.90;7.13;;;;;;;;;;5959824;29;20055;-74
2022/02/25 08:51:34;;;;;;;17.00;7.28;;;;;;;;;;5960171;29;20108;-73
2022/02/25 08:54:37;;;;;;;15.65;6.47;;;;;;;;;;5944209;29;20085;-74
2022/02/25 08:57:42;;;;;;;20.35;7.07;;;;;;;;;;5959764;29;20047;-74
2022/02/25 09:00:46;;;;;;;16.25;6.50;;;;;;;;;;5960055;29;20414;-74
2022/02/25 09:03:52;;;;;;;15.77;6.53;;;;;;;;;;5958823;29;20046;-74
2022/02/25 09:06:57;;;;;;;15.10;6.38;;;;;;;;;;5958246;29;20078;-73
2022/02/25 09:10:04;;;;;;;10.35;5.43;;;;;;;;;;5959381;29;20059;-74
2022/02/25 09:13:07;;;;;;;12.05;4.80;;;;;;;;;;5958834;29;20414;-74
2022/02/25 09:16:11;;;;;;;11.77;6.10;;;;;;;;;;5958627;29;20789;-74
2022/02/25 09:19:19;;;;;;;39.83;5.22;;;;;;;;;;5942721;29;20067;-74
2022/02/25 09:22:24;;;;;;;10.68;4.28;;;;;;;;;;5959777;29;20055;-74
2022/02/25 09:25:28;;;;;;;13.15;4.20;;;;;;;;;;5962830;29;20055;-75
2022/02/25 09:28:34;;;;;;;8.35;4.50;;;;;;;;;;5963613;29;20054;-75
2022/02/25 09:31:36;;;;;;;11.80;4.53;;;;;;;;;;5963291;29;20066;-75
2022/02/25 09:34:40;;;;;;;14.05;4.63;;;;;;;;;;5962366;29;20062;-75
2022/02/25 09:37:45;;;;;;;9.25;4.03;;;;;;;;;;5961806;29;20112;-76
2022/02/25 09:40:49;;;;;;;11.85;4.75;;;;;;;;;;5961920;29;20099;-75
2022/02/25 09:43:52;;;;;;;11.35;5.18;;;;;;;;;;5961326;29;20422;-75
2022/02/25 09:46:56;;;;;;;10.18;4.90;;;;;;;;;;5962841;29;20054;-74
2022/02/25 09:49:59;;;;;;;8.60;4.53;;;;;;;;;;5959078;29;20447;-74
2022/02/25 09:53:04;;;;;;;13.10;4.80;;;;;;;;;;5960484;29;20107;-75
2022/02/25 09:56:07;;;;;;;12.35;4.18;;;;;;;;;;5959351;29;20155;-74
2022/02/25 09:59:10;;;;;;;8.30;4.45;;;;;;;;;;5959146;29;20051;-75
2022/02/25 10:02:14;;;;;;;10.60;4.60;;;;;;;;;;5960572;29;20439;-76
2022/02/25 10:05:19;;;;;;;12.15;4.82;;;;;;;;;;5962684;29;20114;-75
2022/02/25 10:08:24;;;;;;;9.95;4.53;;;;;;;;;;5961188;29;20177;-76
2022/02/25 10:11:28;;;;;;;9.70;4.47;;;;;;;;;;5960738;29;20067;-75
2022/02/25 10:14:33;;;;;;;10.80;4.53;;;;;;;;;;5961151;29;20103;-75
2022/02/25 10:17:38;;;;;;;7.03;4.10;;;;;;;;;;5963192;29;20414;-73
2022/02/25 10:20:41;;;;;;;15.45;4.40;;;;;;;;;;5961511;29;20051;-74
2022/02/25 10:23:52;;;;;;;9.88;4.75;;;;;;;;;;5960968;29;20406;-74
2022/02/25 10:26:55;;;;;;;7.30;3.53;;;;;;;;;;5961659;29;20054;-73
2022/02/25 10:30:01;;;;;;;4.70;3.17;;;;;;;;;;5961341;29;20406;-73
2022/02/25 10:33:04;;;;;;;7.35;3.30;;;;;;;;;;5960986;29;20134;-72
2022/02/25 10:36:08;;;;;;;4.95;3.33;;;;;;;;;;5961098;29;20054;-72
2022/02/25 10:39:13;;;;;;;8.85;3.53;;;;;;;;;;5961260;29;20061;-73
2022/02/25 10:42:23;;;;;;;6.40;3.38;;;;;;;;;;5962309;29;20055;-71
2022/02/25 10:45:27;;;;;;;7.60;3.45;;;;;;;;;;5961474;29;20066;-74
2022/02/25 10:48:35;;;;;;;4.73;3.00;;;;;;;;;;5960610;29;20129;-74
2022/02/25 10:51:46;;;;;;;5.95;2.85;;;;;;;;;;5962186;29;20315;-74
2022/02/25 10:54:57;;;;;;;4.57;2.60;;;;;;;;;;5961578;29;20383;-74
2022/02/25 10:58:01;;;;;;;5.30;2.70;;;;;;;;;;5959734;29;20052;-74
2022/02/25 11:01:06;;;;;;;3.78;2.65;;;;;;;;;;5961802;29;20054;-73
2022/02/25 11:04:13;;;;;;;10.85;5.97;;;;;;;;;;5959916;29;20078;-74
2022/02/25 11:07:17;;;;;;;3.70;2.37;;;;;;;;;;5960150;29;20077;-75
2022/02/25 11:10:23;;;;;;;4.72;2.40;;;;;;;;;;5960215;29;20066;-73
2022/02/25 11:13:29;;;;;;;6.72;2.30;;;;;;;;;;5960741;29;20062;-74
2022/02/25 11:16:33;;;;;;;4.50;2.28;;;;;;;;;;5961245;29;20121;-74
2022/02/25 11:19:58;;;;;;;3.60;2.30;;;;;;;;;;5959327;29;20255;-75
2022/02/25 11:23:03;;;;;;;3.53;1.98;;;;;;;;;;5945046;29;20055;-74
2022/02/25 11:26:08;;;;;;;4.50;2.45;;;;;;;;;;5961144;29;20046;-75
2022/02/25 11:29:14;;;;;;;5.32;2.80;;;;;;;;;;5961411;29;20047;-75
2022/02/25 11:32:20;;;;;;;4.30;2.27;;;;;;;;;;5961118;29;20047;-74
2022/02/25 11:35:51;;;;;;;3.72;2.30;;;;;;;;;;5959867;29;20422;-75
2022/02/25 11:38:59;;;;;;;3.70;2.40;;;;;;;;;;5959792;29;20055;-75
2022/02/25 11:42:04;;;;;;;2.13;1.85;;;;;;;;;;5960846;29;20180;-76
2022/02/25 11:45:18;;;;;;;4.30;1.95;;;;;;;;;;5959967;29;20518;-73
2022/02/25 11:48:25;;;;;;;4.05;2.33;;;;;;;;;;5959873;29;20074;-73
2022/02/25 11:51:35;;;;;;;7.07;2.70;;;;;;;;;;5959351;29;20575;-75
2022/02/25 11:54:46;;;;;;;9.75;2.15;;;;;;;;;;5959167;29;20188;-75
2022/02/25 11:57:53;;;;;;;3.15;1.80;;;;;;;;;;5960415;29;20051;-72
2022/02/25 12:01:05;;;;;;;1.65;1.42;;;;;;;;;;5960324;29;20074;-73
2022/02/25 12:04:09;;;;;;;3.78;1.65;;;;;;;;;;5959922;29;20499;-72
2022/02/25 12:07:13;;;;;;;3.13;1.20;;;;;;;;;;5958619;29;20055;-73
2022/02/25 12:10:19;;;;;;;2.05;1.40;;;;;;;;;;5959180;29;20047;-73
2022/02/25 12:13:27;;;;;;;8.30;4.50;;;;;;;;;;5958974;29;20050;-74
2022/02/25 12:16:32;;;;;;;1.90;1.70;;;;;;;;;;5956016;29;20047;-74
2022/02/25 12:19:35;;;;;;;3.15;1.60;;;;;;;;;;5957556;29;20055;-74
2022/02/25 12:22:47;;;;;;;1.63;1.20;;;;;;;;;;5956488;29;20084;-73
2022/02/25 12:25:52;;;;;;;3.15;1.45;;;;;;;;;;5957284;29;20130;-74
2022/02/25 12:28:57;;;;;;;2.17;1.40;;;;;;;;;;5956356;29;20054;-72
2022/02/25 12:32:05;;;;;;;1.10;0.90;;;;;;;;;;5960451;29;20413;-73
2022/02/25 12:35:09;;;;;;;3.08;1.20;;;;;;;;;;5958895;29;20054;-73
2022/02/25 12:38:13;;;;;;;2.70;1.52;;;;;;;;;;5960221;29;20522;-74
2022/02/25 12:41:18;;;;;;;1.50;1.00;;;;;;;;;;5959768;29;20475;-74
2022/02/25 12:44:23;;;;;;;1.52;0.90;;;;;;;;;;5958952;29;20050;-73
2022/02/25 12:47:31;;;;;;;1.20;0.90;;;;;;;;;;5956603;29;20559;-73
2022/02/25 12:50:40;;;;;;;1.20;0.85;;;;;;;;;;5958527;29;20055;-73
2022/02/25 12:53:51;;;;;;;2.30;0.85;;;;;;;;;;5958402;29;20108;-73
2022/02/25 12:56:57;;;;;;;1.33;0.93;;;;;;;;;;5960389;29;20055;-74
2022/02/25 13:00:05;;;;;;;3.13;0.80;;;;;;;;;;5962827;29;20050;-74
2022/02/25 13:03:13;;;;;;;2.28;0.88;;;;;;;;;;5962762;29;20468;-72
2022/02/25 13:06:24;;;;;;;1.63;0.60;;;;;;;;;;5963292;29;20059;-74
2022/02/25 13:09:28;;;;;;;6.75;0.90;;;;;;;;;;5962861;29;20078;-74
2022/02/25 13:12:32;;;;;;;1.52;0.85;;;;;;;;;;5961761;29;20051;-73
2022/02/25 13:15:37;;;;;;;0.90;0.70;;;;;;;;;;5962710;29;20254;-74
2022/02/25 13:18:41;;;;;;;0.55;0.55;;;;;;;;;;5964172;29;20414;-74
2022/02/25 13:21:44;;;;;;;1.15;0.80;;;;;;;;;;5963790;29;20046;-74
2022/02/25 13:24:57;;;;;;;2.53;0.85;;;;;;;;;;5962547;29;20043;-74
2022/02/25 13:28:02;;;;;;;1.30;0.80;;;;;;;;;;5964230;29;20146;-74
2022/02/25 13:31:09;;;;;;;1.92;0.90;;;;;;;;;;5962245;29;20507;-73
2022/02/25 13:34:15;;;;;;;2.40;1.30;;;;;;;;;;5963226;29;20047;-73
2022/02/25 13:37:23;;;;;;;2.13;0.82;;;;;;;;;;5963560;29;20055;-73
2022/02/25 13:40:30;;;;;;;2.20;1.13;;;;;;;;;;5962376;29;20123;-73
2022/02/25 13:43:35;;;;;;;1.05;0.95;;;;;;;;;;5961933;29;20058;-75
2022/02/25 13:46:47;;;;;;;0.90;0.90;;;;;;;;;;5963091;29;20506;-74
2022/02/25 13:53:11;;;;;;;1.70;1.10;;;;;;;;;;5962054;29;20414;-73
2022/02/25 13:56:14;;;;;;;2.20;1.00;;;;;;;;;;5963015;29;20046;-73
2022/02/25 13:59:20;;;;;;;;;;;;;;;;;;5962160;29;20058;-73
2022/02/25 14:02:28;;;;;;;3.25;1.20;;;;;;;;;;5962192;29;19925;-75
2022/02/25 14:05:35;;;;;;;1.08;0.93;;;;;;;;;;5961326;29;20062;-75
2022/02/25 14:08:41;;;;;;;2.47;0.90;;;;;;;;;;5960486;29;20050;-74
2022/02/25 14:11:44;;;;;;;1.20;1.08;;;;;;;;;;5962076;29;20066;-72
2022/02/25 14:14:48;;;;;;;1.55;1.00;;;;;;;;;;5962835;29;20517;-74
2022/02/25 14:17:54;;;;;;;1.00;0.88;;;;;;;;;;5962546;29;20111;-72
2022/02/25 14:20:58;;;;;;;1.40;0.80;;;;;;;;;;5962647;29;20351;-73
2022/02/25 14:24:01;;;;;;;1.88;0.95;;;;;;;;;;5961611;29;20484;-73
2022/02/25 14:27:11;;;;;;;4.40;0.93;;;;;;;;;;5962467;29;20050;-74
2022/02/25 14:30:14;;;;;;;1.33;0.80;;;;;;;;;;5962416;29;20414;-73
2022/02/25 14:33:37;;;;;;;1.77;0.90;;;;;;;;;;5962647;29;20043;-75
2022/02/25 14:36:41;;;;;;;3.78;1.00;;;;;;;;;;5962477;29;20461;-73
2022/02/25 14:39:44;;;;;;;1.58;1.00;;;;;;;;;;5960758;29;20051;-73
2022/02/25 14:42:47;;;;;;;1.52;1.00;;;;;;;;;;5960831;29;20140;-73
2022/02/25 14:45:50;;;;;;;1.90;0.93;;;;;;;;;;5961459;29;20058;-73
2022/02/25 14:48:55;;;;;;;2.60;1.13;;;;;;;;;;5960360;29;20062;-73
2022/02/25 14:51:59;;;;;;;2.70;0.80;;;;;;;;;;5961916;29;20055;-75
2022/02/25 14:55:05;;;;;;;1.65;1.05;;;;;;;;;;5962429;29;20854;-75
2022/02/25 14:58:09;;;;;;;1.42;0.93;;;;;;;;;;5961975;29;20054;-74
2022/02/25 15:01:12;;;;;;;2.78;1.10;;;;;;;;;;5961698;29;20077;-75
2022/02/25 15:04:18;;;;;;;3.55;2.05;;;;;;;;;;5961487;29;20330;-76
2022/02/25 15:07:23;;;;;;;3.40;1.45;;;;;;;;;;5960506;29;20110;-74
2022/02/25 15:10:26;;;;;;;20.52;8.88;;;;;;;;;;5961286;29;20438;-73
2022/02/25 15:13:30;;;;;;;1.63;1.20;;;;;;;;;;5960207;29;20058;-74
2022/02/25 15:16:33;;;;;;;3.40;1.60;;;;;;;;;;5961810;29;20051;-75
2022/02/25 15:19:38;;;;;;;1.80;1.00;;;;;;;;;;5944617;29;20108;-75
2022/02/25 15:22:44;;;;;;;2.30;1.00;;;;;;;;;;5960063;29;20055;-73
2022/02/25 15:25:47;;;;;;;2.45;1.15;;;;;;;;;;5959864;29;20490;-74
2022/02/25 15:28:51;;;;;;;1.95;1.05;;;;;;;;;;5961313;29;20062;-74
2022/02/25 15:31:56;;;;;;;2.42;1.15;;;;;;;;;;5960252;29;20051;-73
2022/02/25 15:35:01;;;;;;;3.25;1.17;;;;;;;;;;5960903;29;20051;-74
2022/02/25 15:38:04;;;;;;;2.00;1.58;;;;;;;;;;5961450;29;20082;-74
2022/02/25 15:41:08;;;;;;;2.45;1.30;;;;;;;;;;5958896;29;20055;-73
2022/02/25 15:44:13;;;;;;;2.13;1.30;;;;;;;;;;5958050;29;20046;-72
2022/02/25 15:47:17;;;;;;;3.63;1.90;;;;;;;;;;5958585;29;20053;-72
2022/02/25 15:50:24;;;;;;;2.67;1.10;;;;;;;;;;5959279;29;20061;-72
2022/02/25 15:53:28;;;;;;;6.38;1.33;;;;;;;;;;5959578;29;20096;-72
2022/02/25 15:56:33;;;;;;;2.20;1.10;;;;;;;;;;5958842;29;20388;-73
2022/02/25 15:59:39;;;;;;;3.70;1.20;;;;;;;;;;5959276;29;20058;-73
2022/02/25 16:02:44;;;;;;;1.13;0.98;;;;;;;;;;5956683;29;20055;-72
2022/02/25 16:05:49;;;;;;;2.90;1.10;;;;;;;;;;5956340;29;20059;-73
2022/02/25 16:08:53;;;;;;;1.75;1.30;;;;;;;;;;5956585;29;20058;-73
2022/02/25 16:11:58;;;;;;;3.17;1.20;;;;;;;;;;5958383;29;20514;-72
2022/02/25 16:15:01;;;;;;;2.50;1.00;;;;;;;;;;5957535;29;20054;-73
2022/02/25 16:18:07;;;;;;;2.13;1.15;;;;;;;;;;5959129;29;20101;-74
2022/02/25 16:21:12;;;;;;;3.15;1.02;;;;;;;;;;5959432;29;20146;-73
2022/02/25 16:24:15;;;;;;;1.23;0.90;;;;;;;;;;5960182;29;20059;-72
2022/02/25 16:27:18;;;;;;;1.45;1.10;;;;;;;;;;5960270;29;20061;-74
2022/02/25 16:30:22;;;;;;;1.90;1.10;;;;;;;;;;5959109;29;20051;-70
2022/02/25 16:33:25;;;;;;;1.77;0.98;;;;;;;;;;5962876;29;20057;-72
2022/02/25 16:36:30;;;;;;;0.50;0.50;;;;;;;;;;5963516;29;20054;-72
2022/02/25 16:39:35;;;;;;;6.38;1.15;;;;;;;;;;5964866;29;20058;-73
2022/02/25 16:42:40;;;;;;;;;;;;;;;;;;5964414;29;20495;-72
2022/02/25 16:45:43;;;;;;;2.03;1.40;;;;;;;;;;5962977;29;20020;-72
2022/02/25 16:48:46;;;;;;;2.30;1.20;;;;;;;;;;5963350;29;20051;-72
2022/02/25 16:51:51;;;;;;;3.17;1.20;;;;;;;;;;5948470;29;20229;-71
2022/02/25 16:54:54;;;;;;;3.27;1.47;;;;;;;;;;5964299;29;20414;-73
2022/02/25 16:58:00;;;;;;;1.35;1.00;;;;;;;;;;5963172;29;20298;-72
2022/02/25 17:01:03;;;;;;;3.88;1.55;;;;;;;;;;5964815;29;20051;-72
2022/02/25 17:04:06;;;;;;;4.05;1.70;;;;;;;;;;5964382;29;20082;-72
2022/02/25 17:07:14;;;;;;;3.45;1.88;;;;;;;;;;5963733;29;20063;-73
2022/02/25 17:10:17;;;;;;;4.50;1.63;;;;;;;;;;5963081;29;20051;-72
2022/02/25 17:13:20;;;;;;;4.43;1.67;;;;;;;;;;5963154;29;20051;-72
2022/02/25 17:16:23;;;;;;;4.00;1.42;;;;;;;;;;5963787;29;20413;-72
2022/02/25 17:19:29;;;;;;;2.28;1.48;;;;;;;;;;5963200;29;20066;-72
2022/02/25 17:22:34;;;;;;;2.70;1.55;;;;;;;;;;5963912;29;20061;-72
2022/02/25 17:25:39;;;;;;;5.65;1.50;;;;;;;;;;5963158;29;20094;-72
2022/02/25 17:28:43;;;;;;;4.18;1.40;;;;;;;;;;5963504;29;20218;-72
2022/02/25 17:31:46;;;;;;;3.03;1.33;;;;;;;;;;5963820;29;20050;-72
2022/02/25 17:35:11;;;;;;;2.38;1.30;;;;;;;;;;5963771;29;20051;-72
2022/02/25 17:38:18;;;;;;;4.63;1.90;;;;;;;;;;5962321;29;20055;-74
2022/02/25 17:41:23;;;;;;;3.60;1.75;;;;;;;;;;5962165;29;20130;-73
2022/02/25 17:44:27;;;;;;;3.80;1.60;;;;;;;;;;5962048;29;20438;-72
2022/02/25 17:47:31;;;;;;;3.35;1.80;;;;;;;;;;5963587;29;20050;-72
2022/02/25 17:50:34;;;;;;;2.15;1.50;;;;;;;;;;5961779;29;20067;-72
2022/02/25 17:53:40;;;;;;;;;;;;;;;;;;5963862;29;20070;-72
2022/02/25 17:56:45;;;;;;;3.47;1.50;;;;;;;;;;5963428;29;19929;-71
2022/02/25 17:59:55;;;;;;;2.97;1.50;;;;;;;;;;5963304;29;20440;-71
2022/02/25 18:03:00;;;;;;;4.60;1.77;;;;;;;;;;5961602;29;20422;-73
2022/02/25 18:06:03;;;;;;;2.25;1.42;;;;;;;;;;5962706;29;20063;-71
2022/02/25 18:09:07;;;;;;;2.58;1.58;;;;;;;;;;5963897;29;20104;-72
2022/02/25 18:12:12;;;;;;;5.18;1.60;;;;;;;;;;5962474;29;20051;-72
2022/02/25 18:15:15;;;;;;;3.15;1.60;;;;;;;;;;5961673;29;20121;-72
2022/02/25 18:18:18;;;;;;;2.08;1.40;;;;;;;;;;5963053;29;20406;-73
2022/02/25 18:21:22;;;;;;;4.63;1.70;;;;;;;;;;5961167;29;20063;-72
2022/02/25 18:24:25;;;;;;;2.28;1.40;;;;;;;;;;5962725;29;20063;-71
2022/02/25 18:27:30;;;;;;;3.38;1.63;;;;;;;;;;5962325;29;20388;-72
2022/02/25 18:30:36;;;;;;;5.57;1.90;;;;;;;;;;5961516;29;20134;-71
2022/02/25 18:33:40;;;;;;;3.05;1.63;;;;;;;;;;5960875;29;20050;-71